Time;durP1;ratioP1;P1;durP2;ratioP2;P2;SDS_P1;SDS_P2;PMS_P1;PMS_P2;Temp;Humidity;BMP_temperature;BMP_pressure;BME280_temperature;BME280_humidity;BME280_pressure;Samples;Min_cycle;Max_cycle;Signal;HPM_P1;HPM_P2
2021/03/10 05:09:07;;;;;;;28.42;19.55;;;7.30;46.70;;;;;;6248967;23;20682;-88
2021/03/10 05:11:33;;;;;;;28.17;20.50;;;7.00;46.50;;;;;;6222483;23;20158;-88
2021/03/10 05:13:59;;;;;;;26.50;20.73;;;6.80;46.80;;;;;;6222678;23;20373;-88
2021/03/10 05:16:25;;;;;;;22.00;17.03;;;7.10;47.70;;;;;;6222925;23;20172;-89
2021/03/10 05:18:51;;;;;;;24.93;19.00;;;7.10;47.90;;;;;;6222828;23;20174;-88
2021/03/10 05:21:16;;;;;;;22.20;19.40;;;6.60;47.10;;;;;;6222644;23;20165;-88
2021/03/10 05:23:42;;;;;;;22.83;18.67;;;6.70;47.40;;;;;;6249570;23;20360;-88
2021/03/10 05:26:10;;;;;;;27.43;21.20;;;6.80;47.60;;;;;;6222434;23;20148;-90
2021/03/10 05:28:36;;;;;;;30.27;20.88;;;6.80;48.40;;;;;;6222302;23;20176;-89
2021/03/10 05:31:02;;;;;;;25.13;20.30;;;6.40;48.40;;;;;;6222342;23;20146;-89
2021/03/10 05:33:27;;;;;;;25.20;20.67;;;6.90;48.60;;;;;;6222710;23;20392;-89
2021/03/10 05:35:53;;;;;;;24.80;19.43;;;6.30;48.80;;;;;;6222793;23;20568;-89
2021/03/10 05:38:19;;;;;;;26.80;21.87;;;6.80;49.10;;;;;;6221871;23;20138;-89
2021/03/10 05:40:44;;;;;;;25.00;17.67;;;6.40;48.90;;;;;;6222462;23;20511;-88
2021/03/10 05:43:10;;;;;;;25.00;20.20;;;6.20;48.70;;;;;;6222573;23;20137;-89
2021/03/10 05:48:11;;;;;;;23.98;18.67;;;6.70;49.30;;;;;;6308911;22;20202;-88
2021/03/10 06:01:30;;;;;;;23.27;19.15;;;6.80;48.60;;;;;;6320387;22;20211;-88
2021/03/10 06:06:44;;;;;;;25.40;19.33;;;7.00;48.30;;;;;;6336118;22;20256;-89
2021/03/10 06:09:21;;;;;;;20.85;17.02;;;7.20;47.60;;;;;;6315080;22;20234;-88
2021/03/10 06:12:02;;;;;;;24.38;19.50;;;6.90;47.10;;;;;;6314549;22;20499;-89
2021/03/10 06:14:29;;;;;;;24.08;18.38;;;7.00;47.00;;;;;;6314830;22;20181;-89
2021/03/10 06:17:09;;;;;;;22.63;18.55;;;7.40;47.40;;;;;;6314345;22;20215;-89
2021/03/10 06:19:42;;;;;;;22.95;18.95;;;7.50;48.00;;;;;;6314712;22;20152;-88
2021/03/10 06:22:10;;;;;;;20.05;16.25;;;7.30;47.00;;;;;;6314207;22;20178;-90
2021/03/10 06:24:38;;;;;;;21.67;19.42;;;7.50;46.90;;;;;;6316452;22;20155;-89
2021/03/10 06:27:26;;;;;;;22.25;18.08;;;8.00;47.80;;;;;;6314011;22;20139;-89
2021/03/10 06:30:00;;;;;;;22.88;17.95;;;7.50;47.00;;;;;;6314181;22;20174;-87
2021/03/10 06:32:27;;;;;;;21.67;18.60;;;7.50;46.30;;;;;;6313360;22;20234;-87
2021/03/10 06:34:53;;;;;;;23.85;18.80;;;7.60;46.00;;;;;;6313565;22;20186;-87
2021/03/10 06:37:30;;;;;;;25.00;20.13;;;7.20;45.60;;;;;;6313560;22;20148;-87
2021/03/10 06:40:13;;;;;;;21.13;18.35;;;7.60;45.90;;;;;;6313837;22;20516;-86
2021/03/10 06:42:40;;;;;;;21.50;17.70;;;7.60;46.00;;;;;;6313260;22;20572;-87
2021/03/10 06:45:07;;;;;;;21.90;17.23;;;7.30;45.60;;;;;;6314048;22;20181;-87
2021/03/10 06:47:41;;;;;;;22.15;18.27;;;7.80;45.80;;;;;;6316484;22;20484;-87
2021/03/10 06:50:10;;;;;;;23.13;17.73;;;7.80;45.70;;;;;;6314343;22;20143;-87
2021/03/10 06:52:38;;;;;;;21.60;17.00;;;8.10;45.90;;;;;;6340958;22;20132;-88
2021/03/10 06:55:05;;;;;;;21.27;16.48;;;8.00;45.70;;;;;;6313640;22;20152;-88
2021/03/10 06:57:41;;;;;;;22.08;16.58;;;8.10;46.00;;;;;;6313814;22;20645;-87
2021/03/10 07:00:18;;;;;;;21.23;17.80;;;7.90;45.60;;;;;;6313380;22;20573;-87
2021/03/10 07:02:45;;;;;;;20.90;16.25;;;8.10;45.60;;;;;;6313415;22;20178;-88
2021/03/10 07:05:11;;;;;;;21.45;16.55;;;8.00;45.40;;;;;;6313147;22;20618;-86
2021/03/10 07:07:36;;;;;;;22.53;18.20;;;8.30;45.20;;;;;;6313243;22;20154;-86
2021/03/10 07:10:04;;;;;;;23.80;17.10;;;8.40;45.00;;;;;;6341253;22;20370;-86
2021/03/10 07:12:30;;;;;;;23.48;18.50;;;8.40;44.90;;;;;;6313306;22;20382;-87
2021/03/10 07:15:00;;;;;;;20.80;16.10;;;8.30;44.30;;;;;;6313226;22;20532;-87
2021/03/10 07:17:26;;;;;;;23.75;19.20;;;8.70;44.30;;;;;;6313438;22;20152;-86
2021/03/10 07:19:52;;;;;;;24.05;18.25;;;8.70;43.90;;;;;;6313248;22;20155;-86
2021/03/10 07:22:36;;;;;;;20.20;17.97;;;8.70;43.80;;;;;;6313385;22;20184;-85
2021/03/10 07:25:13;;;;;;;21.58;18.08;;;8.80;44.30;;;;;;6341604;22;20157;-87
2021/03/10 07:27:52;;;;;;;22.95;18.48;;;8.80;44.10;;;;;;6312236;22;20565;-87
2021/03/10 07:30:18;;;;;;;22.52;17.95;;;8.90;44.00;;;;;;6313208;22;20226;-87
2021/03/10 07:32:45;;;;;;;24.50;20.98;;;8.90;43.40;;;;;;6312987;22;20144;-87
2021/03/10 07:35:12;;;;;;;22.95;17.15;;;9.10;43.10;;;;;;6312436;22;20155;-86
2021/03/10 07:37:53;;;;;;;23.58;17.98;;;9.30;43.20;;;;;;6306479;22;20574;-89
2021/03/10 07:40:20;;;;;;;24.52;18.67;;;8.70;42.40;;;;;;6313845;22;20196;-88
2021/03/10 07:42:57;;;;;;;23.98;19.55;;;9.10;42.90;;;;;;6313370;22;20179;-90
2021/03/10 07:45:29;;;;;;;26.58;19.45;;;9.10;42.60;;;;;;6313477;22;20151;-87
2021/03/10 07:47:58;;;;;;;29.60;22.00;;;9.20;43.50;;;;;;6312711;22;20210;-86
2021/03/10 07:50:36;;;;;;;24.05;19.33;;;9.20;42.90;;;;;;6314002;22;20148;-84
2021/03/10 07:53:02;;;;;;;26.60;21.13;;;9.20;43.00;;;;;;6311141;22;20639;-91
2021/03/10 07:55:50;;;;;;;29.70;19.80;;;9.20;42.80;;;;;;6313130;22;20221;-89
2021/03/10 07:58:39;;;;;;;23.98;18.85;;;9.20;43.80;;;;;;6313610;22;20175;-88
2021/03/10 08:01:21;;;;;;;28.63;20.45;;;9.40;43.20;;;;;;6313439;22;20163;-87
2021/03/10 08:03:47;;;;;;;28.33;21.65;;;9.40;42.80;;;;;;6313313;22;20574;-87
2021/03/10 08:06:13;;;;;;;25.00;19.90;;;9.60;42.30;;;;;;6308595;22;20238;-91
2021/03/10 08:08:44;;;;;;;26.10;20.92;;;10.00;41.60;;;;;;6308720;22;20167;-92
2021/03/10 08:11:17;;;;;;;26.63;21.13;;;9.60;42.40;;;;;;6308308;22;20156;-87
2021/03/10 08:13:47;;;;;;;25.10;21.50;;;9.70;43.10;;;;;;6307328;22;20152;-87
2021/03/10 08:16:13;;;;;;;27.55;23.50;;;9.10;43.30;;;;;;6307855;22;20160;-87
2021/03/10 08:18:46;;;;;;;27.50;21.03;;;9.10;44.00;;;;;;6307864;22;20155;-87
2021/03/10 08:21:13;;;;;;;29.20;22.58;;;8.80;43.70;;;;;;6307323;22;20230;-88
2021/03/10 08:24:13;;;;;;;24.60;21.02;;;8.90;44.10;;;;;;6307611;22;20235;-88
2021/03/10 08:26:41;;;;;;;25.58;21.80;;;8.70;45.30;;;;;;6307202;22;20152;-88
2021/03/10 08:29:06;;;;;;;29.10;21.30;;;9.20;46.70;;;;;;6307055;22;20490;-86
2021/03/10 08:31:44;;;;;;;29.57;20.93;;;8.80;45.40;;;;;;6307121;22;20156;-86
2021/03/10 08:34:10;;;;;;;25.88;21.05;;;8.80;44.90;;;;;;6306840;22;20179;-88
2021/03/10 08:36:36;;;;;;;26.73;20.57;;;8.90;45.00;;;;;;6307577;22;20156;-87
2021/03/10 08:39:14;;;;;;;24.83;19.85;;;9.00;44.40;;;;;;6307756;22;20202;-87
2021/03/10 08:41:55;;;;;;;27.60;20.60;;;8.80;43.40;;;;;;6308595;22;20531;-87
2021/03/10 08:44:22;;;;;;;30.20;21.20;;;9.40;43.80;;;;;;6308470;22;20159;-87
2021/03/10 08:47:14;;;;;;;24.80;20.60;;;9.40;43.30;;;;;;6311031;22;20194;-88
2021/03/10 08:49:46;;;;;;;29.10;20.23;;;9.50;43.50;;;;;;6315870;22;20475;-87
2021/03/10 08:52:31;;;;;;;26.58;21.05;;;9.40;43.00;;;;;;6315386;22;20593;-89
2021/03/10 08:55:03;;;;;;;29.60;21.90;;;9.80;42.40;;;;;;6314784;22;20529;-87
2021/03/10 09:00:52;;;;;;;29.08;22.90;;;9.90;42.20;;;;;;6323293;22;20136;-91
2021/03/10 09:03:27;;;;;;;30.13;23.10;;;9.80;43.20;;;;;;6316448;22;20148;-87
2021/03/10 09:06:01;;;;;;;26.88;21.88;;;9.40;43.20;;;;;;6312462;22;20238;-87
2021/03/10 09:08:27;;;;;;;27.88;21.23;;;9.40;43.80;;;;;;6312166;22;20156;-88
2021/03/10 09:11:15;;;;;;;29.35;20.77;;;9.20;44.90;;;;;;6306751;22;20153;-88
2021/03/10 09:13:41;;;;;;;23.85;20.05;;;9.20;45.00;;;;;;6309635;22;20201;-88
2021/03/10 09:16:35;;;;;;;25.63;21.02;;;9.90;45.10;;;;;;6309531;22;20144;-89
2021/03/10 09:19:01;;;;;;;26.42;22.15;;;9.90;43.70;;;;;;6309634;22;20155;-89
2021/03/10 09:21:47;;;;;;;29.52;23.58;;;10.00;41.60;;;;;;6309193;22;20262;-88
2021/03/10 09:24:13;;;;;;;29.30;23.33;;;10.30;40.90;;;;;;6334600;22;20479;-88
2021/03/10 09:26:39;;;;;;;25.23;20.67;;;10.10;40.60;;;;;;6309332;22;20174;-89
2021/03/10 09:29:06;;;;;;;30.60;22.85;;;10.20;40.80;;;;;;6309021;22;20140;-89
2021/03/10 09:31:32;;;;;;;28.70;20.73;;;10.20;41.00;;;;;;6309229;22;20176;-89
2021/03/10 09:34:05;;;;;;;27.98;21.33;;;10.00;40.60;;;;;;6308698;22;20164;-88
2021/03/10 09:36:40;;;;;;;25.50;21.20;;;10.30;41.60;;;;;;6306664;22;20140;-90
2021/03/10 09:39:07;;;;;;;27.25;21.23;;;10.10;41.10;;;;;;6308580;22;20519;-89
2021/03/10 09:41:34;;;;;;;23.50;19.75;;;10.20;40.80;;;;;;6308753;22;20615;-89
2021/03/10 09:44:08;;;;;;;26.17;21.75;;;10.30;39.70;;;;;;6308861;22;20735;-89
2021/03/10 09:46:56;;;;;;;28.17;21.70;;;10.30;39.90;;;;;;6309254;22;20144;-90
2021/03/10 09:49:23;;;;;;;27.60;21.83;;;10.00;40.50;;;;;;6309793;22;20451;-89
2021/03/10 09:51:49;;;;;;;26.30;21.33;;;10.30;41.20;;;;;;6310599;22;20153;-89
2021/03/10 09:54:14;;;;;;;27.13;21.30;;;10.20;39.60;;;;;;6308020;22;20176;-87
2021/03/10 09:57:02;;;;;;;24.77;22.03;;;10.20;40.10;;;;;;6309629;22;20203;-89
2021/03/10 09:59:34;;;;;;;31.38;26.13;;;10.10;40.60;;;;;;6308265;22;20380;-90
2021/03/10 10:02:08;;;;;;;26.40;23.30;;;10.20;40.30;;;;;;6307921;22;20847;-89
2021/03/10 10:04:34;;;;;;;26.98;22.92;;;10.10;40.90;;;;;;6308930;22;20149;-88
2021/03/10 10:06:59;;;;;;;26.07;21.87;;;10.10;40.60;;;;;;6308352;22;20466;-90
2021/03/10 10:09:27;;;;;;;27.20;23.87;;;10.10;40.70;;;;;;6307115;22;20855;-90
2021/03/10 10:11:52;;;;;;;24.98;20.52;;;10.20;39.30;;;;;;6308665;22;20473;-89
2021/03/10 10:14:18;;;;;;;24.10;20.20;;;10.20;39.30;;;;;;6308305;22;20191;-90
2021/03/10 10:16:44;;;;;;;22.10;19.60;;;10.50;39.50;;;;;;6309083;22;20156;-90
2021/03/10 10:19:10;;;;;;;23.13;19.47;;;10.50;37.60;;;;;;6309098;22;20234;-90
2021/03/10 10:21:35;;;;;;;23.58;20.98;;;10.50;37.70;;;;;;6307862;22;20424;-89
2021/03/10 10:24:01;;;;;;;22.30;20.00;;;10.30;38.60;;;;;;6308462;22;20658;-89
2021/03/10 10:26:27;;;;;;;22.20;19.88;;;10.00;38.50;;;;;;6308152;22;20824;-89
2021/03/10 10:28:53;;;;;;;23.20;19.10;;;10.20;37.40;;;;;;6308792;22;20526;-89
2021/03/10 10:31:18;;;;;;;24.90;18.07;;;10.40;38.00;;;;;;6308614;22;20157;-89
2021/03/10 10:33:45;;;;;;;23.00;19.80;;;10.60;37.40;;;;;;6308730;22;20152;-89
2021/03/10 10:36:11;;;;;;;21.13;18.35;;;10.90;36.60;;;;;;6308227;22;20164;-89
2021/03/10 10:38:36;;;;;;;24.90;19.90;;;10.80;36.40;;;;;;6308192;22;20384;-88
2021/03/10 10:41:02;;;;;;;20.73;16.93;;;11.00;37.00;;;;;;6307869;22;20197;-89
2021/03/10 10:43:33;;;;;;;19.43;17.17;;;10.90;36.60;;;;;;6308534;22;20605;-89
2021/03/10 10:45:59;;;;;;;18.33;15.85;;;11.00;36.40;;;;;;6307896;22;20148;-89
2021/03/10 10:48:24;;;;;;;19.80;17.50;;;10.70;35.20;;;;;;6308247;22;20160;-89
2021/03/10 10:50:50;;;;;;;18.00;15.07;;;11.80;34.80;;;;;;6308417;22;20558;-89
2021/03/10 10:53:18;;;;;;;19.20;16.13;;;11.90;32.70;;;;;;6307720;22;20182;-89
2021/03/10 10:55:43;;;;;;;19.10;16.13;;;12.20;32.90;;;;;;6308480;22;20227;-89
2021/03/10 10:58:09;;;;;;;19.60;16.97;;;12.50;32.20;;;;;;6308696;22;20496;-88
2021/03/10 11:00:35;;;;;;;18.70;16.70;;;12.40;31.50;;;;;;6308194;22;20160;-89
2021/03/10 11:03:01;;;;;;;22.37;17.07;;;12.60;30.90;;;;;;6307567;22;20488;-89
2021/03/10 11:05:26;;;;;;;17.80;15.90;;;12.20;31.40;;;;;;6311150;22;20164;-90
2021/03/10 11:07:52;;;;;;;25.47;17.40;;;12.40;31.80;;;;;;6313098;22;20148;-92
2021/03/10 11:10:18;;;;;;;21.37;16.73;;;11.80;31.50;;;;;;6314311;22;20167;-90
2021/03/10 11:12:43;;;;;;;17.07;15.27;;;11.80;31.80;;;;;;6313308;22;20197;-89
2021/03/10 11:15:10;;;;;;;17.17;13.97;;;11.90;31.60;;;;;;6313545;22;20389;-88
2021/03/10 11:17:36;;;;;;;15.80;14.20;;;12.30;31.20;;;;;;6313330;22;20156;-90
2021/03/10 11:20:04;;;;;;;16.50;14.67;;;11.90;30.00;;;;;;6313135;22;20374;-90
2021/03/10 11:22:29;;;;;;;14.67;13.17;;;12.00;29.90;;;;;;6312653;22;20425;-90
2021/03/10 11:24:55;;;;;;;15.00;12.70;;;12.20;29.90;;;;;;6313366;22;20378;-92
2021/03/10 11:27:22;;;;;;;16.10;13.83;;;12.40;30.00;;;;;;6312664;22;20151;-90
2021/03/10 11:29:48;;;;;;;15.50;13.30;;;12.00;30.00;;;;;;6310869;22;20744;-89
2021/03/10 11:32:13;;;;;;;14.03;12.63;;;11.80;29.70;;;;;;6313226;22;20373;-89
2021/03/10 11:35:12;;;;;;;15.23;13.20;;;12.20;29.80;;;;;;6311482;22;20431;-89
2021/03/10 11:37:38;;;;;;;14.20;12.40;;;12.60;29.20;;;;;;6310949;22;20379;-89
2021/03/10 11:40:06;;;;;;;13.13;11.83;;;13.00;27.10;;;;;;6311818;22;20162;-89
2021/03/10 11:42:32;;;;;;;15.40;13.87;;;13.20;27.20;;;;;;6311880;22;20300;-90
2021/03/10 11:44:58;;;;;;;16.67;13.63;;;13.40;26.80;;;;;;6313039;22;20370;-89
2021/03/10 11:47:23;;;;;;;16.60;13.13;;;13.50;26.80;;;;;;6312317;22;20642;-89
2021/03/10 11:49:49;;;;;;;15.73;12.83;;;13.40;26.80;;;;;;6312273;22;20509;-89
2021/03/10 11:52:15;;;;;;;16.90;11.60;;;13.60;26.60;;;;;;6311306;22;20151;-89
2021/03/10 11:54:41;;;;;;;13.37;12.00;;;13.90;27.00;;;;;;6311398;22;20432;-89
2021/03/10 11:57:06;;;;;;;12.57;11.00;;;13.60;25.70;;;;;;6312930;22;20455;-89
2021/03/10 11:59:32;;;;;;;12.07;10.80;;;13.40;25.50;;;;;;6312939;22;20152;-88
2021/03/10 12:02:00;;;;;;;12.57;11.37;;;13.40;25.60;;;;;;6312406;22;20175;-88
2021/03/10 12:04:26;;;;;;;12.53;11.27;;;13.10;26.30;;;;;;6312860;22;20139;-87
2021/03/10 12:06:52;;;;;;;11.73;10.35;;;12.90;26.50;;;;;;6313033;22;20432;-89
2021/03/10 12:09:18;;;;;;;13.20;10.73;;;12.70;25.50;;;;;;6312875;22;20378;-89
2021/03/10 12:11:47;;;;;;;14.90;10.30;;;12.60;25.60;;;;;;6313027;22;20396;-90
2021/03/10 12:14:13;;;;;;;12.63;11.33;;;12.60;26.30;;;;;;6311997;22;20953;-89
2021/03/10 12:16:46;;;;;;;12.97;11.60;;;12.60;26.30;;;;;;6312639;22;20396;-90
2021/03/10 12:19:12;;;;;;;13.20;11.80;;;12.30;26.10;;;;;;6311662;22;20371;-90
2021/03/10 12:21:39;;;;;;;10.90;9.80;;;12.20;26.40;;;;;;6315699;22;20636;-92
2021/03/10 12:24:05;;;;;;;11.93;10.10;;;12.30;26.10;;;;;;6312406;22;20198;-87
2021/03/10 12:26:31;;;;;;;13.50;10.80;;;12.70;25.50;;;;;;6314636;22;20400;-90
2021/03/10 12:28:56;;;;;;;11.83;10.10;;;12.30;25.80;;;;;;6312994;22;20378;-89
2021/03/10 12:31:33;;;;;;;13.20;11.40;;;12.10;26.50;;;;;;6312135;22;20154;-89
2021/03/10 12:33:58;;;;;;;13.70;11.20;;;11.90;27.00;;;;;;6312992;22;20151;-89
2021/03/10 12:37:12;;;;;;;12.40;10.30;;;11.70;27.40;;;;;;6313170;22;20846;-94
2021/03/10 12:39:38;;;;;;;12.80;9.83;;;11.60;26.40;;;;;;6314752;22;20564;-93
2021/03/10 12:42:08;;;;;;;12.77;9.67;;;11.20;26.90;;;;;;6315725;22;20483;-91
2021/03/10 12:44:34;;;;;;;13.63;9.20;;;11.40;28.10;;;;;;6326016;22;20373;-94
2021/03/10 12:47:00;;;;;;;12.10;9.83;;;11.40;27.50;;;;;;6326436;22;20384;-93
2021/03/10 12:53:15;;;;;;;10.77;9.70;;;11.60;27.10;;;;;;6352445;22;20151;-93
2021/03/10 12:55:40;;;;;;;10.43;9.33;;;11.60;26.80;;;;;;6325230;22;20374;-84
2021/03/10 12:58:28;;;;;;;9.73;8.60;;;11.90;27.40;;;;;;6311155;22;20388;-89
2021/03/10 13:00:54;;;;;;;10.50;8.60;;;12.40;26.10;;;;;;6314542;22;20214;-89
2021/03/10 13:03:22;;;;;;;13.13;9.90;;;12.80;26.20;;;;;;6314968;22;20432;-88
2021/03/10 13:09:57;;;;;;;10.93;9.07;;;12.60;24.70;;;;;;6337347;22;20396;-88
2021/03/10 13:12:25;;;;;;;10.43;9.40;;;12.50;25.50;;;;;;6316248;22;20378;-91
2021/03/10 13:14:52;;;;;;;9.53;8.63;;;12.90;24.60;;;;;;6317693;22;20365;-91
2021/03/10 13:17:55;;;;;;;11.43;9.67;;;13.40;24.50;;;;;;6318477;22;20810;-91
2021/03/10 13:20:21;;;;;;;11.10;10.20;;;13.30;23.50;;;;;;6325789;22;20449;-88
2021/03/10 13:22:47;;;;;;;12.90;9.73;;;13.30;23.80;;;;;;6320892;22;20420;-93
2021/03/10 13:25:39;;;;;;;10.67;8.73;;;13.30;23.80;;;;;;6320548;22;20432;-91
2021/03/10 13:50:46;;;;;;;8.50;7.63;;;13.20;22.60;;;;;;6341535;22;20457;-88
2021/03/10 13:53:11;;;;;;;9.23;7.97;;;13.10;23.50;;;;;;6313477;22;20386;-89
2021/03/10 13:55:41;;;;;;;10.33;8.80;;;13.20;22.80;;;;;;6315230;22;20409;-90
2021/03/10 13:58:07;;;;;;;7.53;6.83;;;13.20;22.90;;;;;;6314658;22;20402;-90
2021/03/10 14:00:33;;;;;;;8.50;7.60;;;13.30;22.80;;;;;;6314601;22;20385;-90
2021/03/10 14:02:59;;;;;;;8.43;7.30;;;13.30;22.40;;;;;;6313857;22;20516;-91
2021/03/10 14:05:25;;;;;;;7.33;6.63;;;13.30;22.60;;;;;;6313506;22;20411;-89
2021/03/10 14:07:53;;;;;;;8.00;6.80;;;13.80;22.60;;;;;;6314810;22;20173;-89
2021/03/10 14:10:20;;;;;;;8.77;7.73;;;13.90;22.00;;;;;;6313365;22;20427;-89
2021/03/10 14:12:47;;;;;;;8.67;7.77;;;13.80;21.30;;;;;;6314398;22;20401;-89
2021/03/10 14:15:15;;;;;;;9.80;8.57;;;13.70;21.70;;;;;;6314129;22;20371;-88
2021/03/10 14:17:41;;;;;;;10.53;8.90;;;13.70;21.70;;;;;;6316378;22;20219;-90
2021/03/10 14:20:19;;;;;;;9.60;8.40;;;13.40;21.90;;;;;;6315232;22;20397;-88
2021/03/10 14:22:46;;;;;;;8.67;7.47;;;13.30;22.40;;;;;;6315019;22;20207;-88
2021/03/10 14:25:14;;;;;;;8.47;7.67;;;13.30;22.90;;;;;;6314452;22;20374;-90
2021/03/10 14:27:41;;;;;;;7.10;6.40;;;13.20;21.80;;;;;;6314625;22;20832;-90
2021/03/10 14:30:19;;;;;;;8.63;6.30;;;13.20;21.90;;;;;;6313466;22;20418;-91
2021/03/10 14:32:44;;;;;;;6.90;5.60;;;13.50;21.80;;;;;;6314884;22;20905;-89
2021/03/10 14:35:16;;;;;;;6.50;5.80;;;13.20;21.90;;;;;;6313766;22;20374;-87
2021/03/10 14:37:43;;;;;;;7.93;7.13;;;13.30;21.90;;;;;;6313061;22;20562;-91
2021/03/10 14:40:16;;;;;;;7.20;6.50;;;13.20;22.50;;;;;;6314406;22;20370;-89
2021/03/10 14:42:42;;;;;;;6.80;6.10;;;13.20;22.50;;;;;;6314273;22;20418;-90
2021/03/10 14:45:40;;;;;;;8.70;6.90;;;13.20;22.10;;;;;;6313757;22;20380;-90
2021/03/10 14:48:06;;;;;;;8.53;7.63;;;13.30;22.80;;;;;;6313716;22;20370;-90
2021/03/10 14:50:32;;;;;;;7.07;6.37;;;12.90;22.70;;;;;;6308370;22;20438;-89
2021/03/10 14:53:26;;;;;;;8.87;7.83;;;13.20;23.10;;;;;;6308120;22;20547;-89
2021/03/10 14:55:51;;;;;;;8.57;6.73;;;13.20;22.60;;;;;;6308698;22;20153;-92
2021/03/10 14:58:17;;;;;;;7.40;6.70;;;13.00;23.00;;;;;;6308798;22;20852;-89
2021/03/10 15:00:43;;;;;;;7.37;6.60;;;13.30;22.80;;;;;;6308836;22;20632;-90
2021/03/10 15:03:14;;;;;;;9.13;7.20;;;13.20;23.10;;;;;;6308462;22;20419;-89
2021/03/10 15:05:39;;;;;;;7.30;6.60;;;13.30;23.40;;;;;;6309429;22;20137;-89
2021/03/10 15:08:06;;;;;;;8.30;6.93;;;13.30;23.00;;;;;;6309335;22;20501;-89
2021/03/10 15:10:32;;;;;;;7.07;6.37;;;13.30;22.40;;;;;;6308900;22;20141;-90
2021/03/10 15:13:06;;;;;;;6.67;5.83;;;13.80;22.80;;;;;;6308806;22;20398;-89
2021/03/10 15:15:32;;;;;;;7.00;6.30;;;13.90;21.70;;;;;;6309145;22;20848;-89
2021/03/10 15:18:00;;;;;;;6.47;5.80;;;13.90;21.60;;;;;;6308825;22;20371;-89
2021/03/10 15:20:25;;;;;;;6.67;6.00;;;14.10;21.90;;;;;;6309036;22;20371;-89
2021/03/10 15:22:57;;;;;;;7.50;6.33;;;14.10;21.30;;;;;;6308681;22;20476;-88
2021/03/10 15:25:23;;;;;;;7.33;6.63;;;14.00;21.80;;;;;;6308779;22;20238;-89
2021/03/10 15:28:06;;;;;;;6.10;5.23;;;13.60;21.50;;;;;;6308565;22;20704;-89
2021/03/10 15:30:32;;;;;;;8.77;6.30;;;13.90;21.80;;;;;;6308462;22;20136;-88
2021/03/10 15:33:25;;;;;;;7.37;5.77;;;13.90;21.30;;;;;;6308675;22;20382;-90
2021/03/10 15:35:51;;;;;;;7.07;6.30;;;13.80;22.10;;;;;;6308909;22;20151;-89
2021/03/10 15:38:39;;;;;;;7.27;6.00;;;13.90;21.30;;;;;;6308189;22;20454;-90
2021/03/10 15:41:05;;;;;;;8.10;6.80;;;14.20;20.80;;;;;;6310348;22;20133;-89
2021/03/10 15:43:32;;;;;;;6.40;5.80;;;14.50;21.00;;;;;;6309149;22;20760;-89
2021/03/10 15:45:57;;;;;;;7.90;6.60;;;14.10;20.80;;;;;;6309150;22;20137;-90
2021/03/10 15:48:41;;;;;;;9.53;7.50;;;14.40;21.00;;;;;;6308739;22;20848;-90
2021/03/10 15:51:07;;;;;;;6.60;5.53;;;14.20;21.50;;;;;;6307697;22;20192;-90
2021/03/10 15:53:43;;;;;;;7.73;6.90;;;13.80;21.80;;;;;;6307761;22;20394;-90
2021/03/10 15:56:09;;;;;;;7.43;5.97;;;13.70;21.60;;;;;;6308025;22;20483;-90
2021/03/10 15:58:34;;;;;;;7.40;5.20;;;13.40;22.10;;;;;;6308863;22;20414;-89
2021/03/10 16:01:00;;;;;;;6.40;5.80;;;13.70;22.40;;;;;;6308848;22;20198;-92
2021/03/10 16:03:26;;;;;;;7.90;7.10;;;13.90;22.10;;;;;;6310206;22;20176;-91
2021/03/10 16:06:00;;;;;;;7.13;6.00;;;14.10;21.70;;;;;;6308909;22;20483;-92
2021/03/10 16:08:25;;;;;;;6.40;5.80;;;14.30;21.40;;;;;;6308699;22;20180;-90
2021/03/10 16:10:53;;;;;;;5.70;5.10;;;14.60;21.20;;;;;;6308254;22;20374;-89
2021/03/10 16:13:19;;;;;;;6.47;5.87;;;14.50;21.10;;;;;;6309128;22;20145;-90
2021/03/10 16:19:16;;;;;;;8.20;6.63;;;14.00;21.40;;;;;;6314803;22;20132;-89
2021/03/10 16:21:43;;;;;;;7.10;6.40;;;14.00;22.00;;;;;;6311479;22;20445;-89
2021/03/10 16:24:13;;;;;;;8.03;6.03;;;13.60;22.30;;;;;;6314173;22;20752;-90
2021/03/10 16:26:39;;;;;;;8.07;6.00;;;13.50;22.40;;;;;;6312140;22;20374;-90
2021/03/10 16:29:07;;;;;;;6.93;6.17;;;13.40;22.60;;;;;;6310471;22;20431;-89
2021/03/10 16:31:33;;;;;;;8.20;7.20;;;13.50;22.60;;;;;;6310754;22;20414;-89
2021/03/10 16:33:59;;;;;;;12.53;8.67;;;13.40;22.50;;;;;;6310477;22;20385;-90
2021/03/10 16:36:25;;;;;;;12.40;8.00;;;13.30;22.60;;;;;;6309966;22;20551;-91
2021/03/10 16:38:51;;;;;;;7.87;7.07;;;13.60;22.70;;;;;;6311327;22;20148;-92
2021/03/10 16:41:22;;;;;;;7.33;6.57;;;13.80;22.70;;;;;;6312022;22;20400;-92
2021/03/10 16:43:48;;;;;;;7.40;6.70;;;13.60;22.60;;;;;;6310409;22;20145;-88
2021/03/10 16:46:19;;;;;;;8.23;6.83;;;13.60;22.50;;;;;;6309708;22;20377;-89
2021/03/10 16:48:45;;;;;;;10.70;6.40;;;13.40;23.00;;;;;;6309497;22;20199;-89
2021/03/10 16:51:30;;;;;;;7.70;6.90;;;13.20;23.50;;;;;;6315126;22;20386;-89
2021/03/10 16:53:55;;;;;;;7.80;7.00;;;13.20;23.20;;;;;;6314379;22;20832;-89
2021/03/10 16:59:49;;;;;;;7.43;6.23;;;13.20;23.20;;;;;;6342542;22;20154;-91
2021/03/10 17:02:15;;;;;;;7.17;6.30;;;13.20;23.00;;;;;;6314741;22;20418;-88
2021/03/10 17:05:19;;;;;;;9.97;6.30;;;13.60;23.00;;;;;;6314976;22;20376;-89
2021/03/10 17:07:45;;;;;;;8.50;7.60;;;13.40;23.20;;;;;;6314317;22;20136;-89
2021/03/10 17:10:53;;;;;;;7.40;6.70;;;13.60;23.70;;;;;;6315472;22;20373;-90
2021/03/10 17:13:19;;;;;;;6.60;5.90;;;13.50;24.00;;;;;;6316794;22;20144;-89
2021/03/10 17:15:58;;;;;;;7.23;6.57;;;13.70;24.50;;;;;;6314751;22;20407;-89
2021/03/10 17:18:23;;;;;;;9.20;5.93;;;13.40;24.60;;;;;;6313709;22;20158;-90
2021/03/10 17:21:10;;;;;;;10.63;5.77;;;13.30;25.40;;;;;;6314551;22;20371;-88
2021/03/10 17:23:36;;;;;;;8.23;6.23;;;13.20;25.10;;;;;;6314361;22;20147;-87
2021/03/10 17:26:02;;;;;;;8.07;6.70;;;13.10;25.10;;;;;;6314179;22;20366;-87
2021/03/10 17:28:55;;;;;;;8.67;6.33;;;12.90;25.10;;;;;;6343499;22;20363;-88
2021/03/10 17:31:21;;;;;;;6.57;5.90;;;13.30;25.30;;;;;;6314341;22;20143;-87
2021/03/10 17:34:02;;;;;;;8.43;5.50;;;13.10;25.60;;;;;;6314225;22;20378;-90
2021/03/10 17:36:27;;;;;;;6.73;6.03;;;13.00;26.20;;;;;;6314519;22;20227;-91
2021/03/10 17:38:53;;;;;;;7.50;6.73;;;13.10;26.60;;;;;;6311747;22;20389;-87
2021/03/10 17:41:19;;;;;;;6.97;5.93;;;12.90;26.50;;;;;;6313607;22;20589;-90
2021/03/10 17:43:48;;;;;;;10.33;5.60;;;12.80;26.50;;;;;;6314277;22;20435;-90
2021/03/10 17:46:13;;;;;;;8.43;5.53;;;12.90;26.60;;;;;;6313774;22;20155;-90
2021/03/10 17:48:42;;;;;;;9.00;5.53;;;12.80;26.80;;;;;;6313891;22;20368;-89
2021/03/10 17:51:07;;;;;;;15.52;11.68;;;12.80;27.10;;;;;;6313740;22;20294;-89
2021/03/10 17:54:23;;;;;;;12.30;9.50;;;12.40;26.70;;;;;;6314275;22;20167;-89
2021/03/10 17:56:48;;;;;;;8.90;7.40;;;12.60;26.90;;;;;;6313883;22;20150;-88
2021/03/10 17:59:14;;;;;;;8.33;7.27;;;12.50;27.00;;;;;;6313782;22;20457;-88
2021/03/10 18:01:40;;;;;;;9.23;8.13;;;12.80;27.80;;;;;;6314333;22;20179;-89
2021/03/10 18:04:20;;;;;;;8.60;7.03;;;12.60;27.30;;;;;;6314256;22;20143;-89
2021/03/10 18:06:46;;;;;;;13.80;6.40;;;12.60;27.80;;;;;;6314107;22;20136;-88
2021/03/10 18:09:34;;;;;;;7.53;6.65;;;12.10;28.20;;;;;;6313896;22;20813;-89
2021/03/10 18:12:00;;;;;;;11.13;6.15;;;12.00;29.00;;;;;;6315534;22;20151;-89
2021/03/10 18:14:32;;;;;;;11.83;10.70;;;12.10;29.20;;;;;;6315482;22;20383;-89
2021/03/10 18:16:58;;;;;;;17.27;10.10;;;11.90;28.70;;;;;;6314851;22;20639;-89
2021/03/10 18:19:48;;;;;;;10.17;8.27;;;12.00;28.60;;;;;;6316053;22;20203;-91
2021/03/10 18:22:17;;;;;;;9.18;8.27;;;11.80;28.60;;;;;;6317973;22;20186;-87
2021/03/10 18:24:44;;;;;;;10.48;8.20;;;12.00;28.80;;;;;;6315296;22;20507;-90
2021/03/10 18:27:10;;;;;;;13.75;10.43;;;11.90;28.70;;;;;;6316756;22;20147;-89
2021/03/10 18:29:43;;;;;;;13.17;10.27;;;12.00;28.60;;;;;;6314384;22;20219;-89
2021/03/10 18:32:09;;;;;;;12.68;9.82;;;12.00;28.60;;;;;;6341068;22;20350;-89
2021/03/10 18:34:49;;;;;;;12.37;10.00;;;12.00;28.70;;;;;;6315840;22;20178;-89
2021/03/10 18:37:16;;;;;;;10.30;8.88;;;12.10;28.80;;;;;;6314604;22;20432;-90
2021/03/10 18:39:53;;;;;;;12.30;9.75;;;11.90;28.80;;;;;;6316038;22;20173;-90
2021/03/10 18:42:19;;;;;;;13.20;9.95;;;12.00;29.00;;;;;;6316469;22;20159;-89
2021/03/10 18:44:46;;;;;;;12.43;9.80;;;11.80;28.90;;;;;;6313677;22;20136;-88
2021/03/10 18:47:12;;;;;;;13.10;10.38;;;11.70;28.90;;;;;;6313231;22;20136;-89
2021/03/10 18:49:37;;;;;;;8.80;8.00;;;12.00;29.10;;;;;;6309810;22;20198;-89
2021/03/10 18:52:16;;;;;;;10.13;7.53;;;11.80;29.60;;;;;;6309085;22;20570;-89
2021/03/10 18:54:42;;;;;;;10.82;7.20;;;11.50;29.80;;;;;;6309263;22;20161;-86
2021/03/10 18:57:33;;;;;;;7.43;6.70;;;11.40;30.70;;;;;;6315413;22;20152;-89
2021/03/10 18:59:59;;;;;;;11.77;8.85;;;11.50;30.20;;;;;;6308658;22;20157;-89